QFA545 YBBN-YSSY
Flight info
| Callsign | QFA545 |
|---|---|
| Flight time | 1h 17m |
| Altitude | 30000 |
| Route | BN H91 IGDAM/N0443F290 H652 TESAT |
| Aircraft | B738/M-SDE2E3FGHIRWXY/LB1 |
Departure
| Time | 2026-05-04 06:59 |
|---|---|
| Airport | Brisbane International Airport (YBBN) |
Arrival
| Time | 2026-05-04 08:17 |
|---|---|
| Airport | Sydney Kingsford Smith International Airport (YSSY) |
| Time | Latitude | Longitude | Altitude | Speed | Heading |
|---|---|---|---|---|---|
| 2026-05-04 06:29 | -27.38431 | 153.12146 | 22 ft | 0 kts | 271° |
| 2026-05-04 06:48 | -27.38432 | 153.12193 | 20 ft | 4 kts | 271° |
| 2026-05-04 06:48 | -27.38432 | 153.12213 | 20 ft | 4 kts | 271° |
| 2026-05-04 06:49 | -27.38432 | 153.12244 | 20 ft | 4 kts | 270° |
| 2026-05-04 06:50 | -27.38433 | 153.12285 | 20 ft | 0 kts | 270° |
| 2026-05-04 06:53 | -27.38447 | 153.12258 | 22 ft | 6 kts | 207° |
| 2026-05-04 06:53 | -27.38486 | 153.12274 | 20 ft | 6 kts | 139° |
| 2026-05-04 06:53 | -27.38509 | 153.12316 | 23 ft | 6 kts | 116° |
| 2026-05-04 06:53 | -27.38535 | 153.12360 | 20 ft | 7 kts | 128° |
| 2026-05-04 06:54 | -27.38570 | 153.12403 | 20 ft | 8 kts | 144° |
| 2026-05-04 06:54 | -27.38615 | 153.12409 | 20 ft | 6 kts | 205° |
| 2026-05-04 06:54 | -27.38653 | 153.12387 | 20 ft | 7 kts | 208° |
| 2026-05-04 06:54 | -27.38699 | 153.12360 | 20 ft | 8 kts | 208° |
| 2026-05-04 06:55 | -27.38753 | 153.12329 | 21 ft | 9 kts | 206° |
| 2026-05-04 06:55 | -27.38823 | 153.12290 | 20 ft | 14 kts | 207° |
| 2026-05-04 06:55 | -27.38930 | 153.12230 | 20 ft | 20 kts | 207° |
| 2026-05-04 06:55 | -27.39066 | 153.12151 | 21 ft | 22 kts | 207° |
| 2026-05-04 06:56 | -27.39202 | 153.12073 | 21 ft | 22 kts | 207° |
| 2026-05-04 06:57 | -27.39596 | 153.12161 | 19 ft | 14 kts | 105° |
| 2026-05-04 06:58 | -27.39557 | 153.12240 | 20 ft | 12 kts | 24° |
| 2026-05-04 06:58 | -27.39485 | 153.12278 | 20 ft | 14 kts | 27° |
| 2026-05-04 06:58 | -27.39185 | 153.12449 | 19 ft | 84 kts | 27° |
| 2026-05-04 06:58 | -27.38471 | 153.12856 | 21 ft | 145 kts | 27° |
| 2026-05-04 06:59 | -27.37453 | 153.13434 | 294 ft | 171 kts | 29° |
| 2026-05-04 06:59 | -27.36389 | 153.14084 | 995 ft | 174 kts | 39° |
| 2026-05-04 06:59 | -27.35550 | 153.15038 | 1669 ft | 177 kts | 51° |
| 2026-05-04 06:59 | -27.34706 | 153.16113 | 2237 ft | 189 kts | 51° |
| 2026-05-04 07:01 | -27.28496 | 153.25848 | 5763 ft | 251 kts | 87° |
| 2026-05-04 07:01 | -27.28428 | 153.27820 | 6565 ft | 253 kts | 88° |
| 2026-05-04 07:02 | -27.28378 | 153.29828 | 7240 ft | 259 kts | 88° |
| 2026-05-04 07:02 | -27.28307 | 153.31862 | 7931 ft | 266 kts | 87° |
| 2026-05-04 07:02 | -27.28227 | 153.33968 | 8663 ft | 271 kts | 86° |
| 2026-05-04 07:02 | -27.28143 | 153.36094 | 9523 ft | 273 kts | 89° |
| 2026-05-04 07:03 | -27.28557 | 153.38176 | 10125 ft | 285 kts | 121° |
| 2026-05-04 07:03 | -27.29981 | 153.39719 | 10790 ft | 291 kts | 153° |
| 2026-05-04 07:03 | -27.31873 | 153.40568 | 11523 ft | 295 kts | 162° |
| 2026-05-04 07:03 | -27.33895 | 153.41063 | 12250 ft | 299 kts | 178° |
| 2026-05-04 07:04 | -27.35962 | 153.41104 | 13010 ft | 302 kts | 182° |
| 2026-05-04 07:04 | -27.38092 | 153.41019 | 13785 ft | 307 kts | 189° |
| 2026-05-04 07:04 | -27.40232 | 153.40460 | 14088 ft | 326 kts | 200° |
| 2026-05-04 07:04 | -27.42453 | 153.39667 | 14273 ft | 350 kts | 200° |
| 2026-05-04 07:05 | -27.44846 | 153.38849 | 14678 ft | 364 kts | 199° |
| 2026-05-04 07:05 | -27.47289 | 153.37986 | 15319 ft | 368 kts | 206° |
| 2026-05-04 07:05 | -27.49427 | 153.36473 | 15784 ft | 372 kts | 224° |
| 2026-05-04 07:05 | -27.51406 | 153.34503 | 16227 ft | 382 kts | 225° |
| 2026-05-04 07:06 | -27.55458 | 153.30555 | 17524 ft | 388 kts | 227° |
| 2026-05-04 07:06 | -27.57096 | 153.28176 | 18179 ft | 382 kts | 246° |
| 2026-05-04 07:06 | -27.58245 | 153.25470 | 18821 ft | 382 kts | 248° |
| 2026-05-04 07:07 | -27.59412 | 153.22750 | 19400 ft | 385 kts | 247° |
| 2026-05-04 07:08 | -27.74516 | 153.09242 | 23137 ft | 422 kts | 216° |
| 2026-05-04 07:09 | -27.77070 | 153.07547 | 23660 ft | 424 kts | 216° |
| 2026-05-04 07:09 | -27.79590 | 153.05866 | 24082 ft | 426 kts | 216° |
| 2026-05-04 07:09 | -27.82160 | 153.04176 | 24515 ft | 429 kts | 214° |
| 2026-05-04 07:09 | -27.84910 | 153.02758 | 24941 ft | 436 kts | 208° |
| 2026-05-04 07:10 | -27.87769 | 153.01539 | 25368 ft | 440 kts | 206° |
| 2026-05-04 07:10 | -27.90632 | 153.00383 | 25771 ft | 442 kts | 206° |
| 2026-05-04 07:12 | -28.10962 | 152.91606 | 28705 ft | 447 kts | 209° |
| 2026-05-04 07:12 | -28.13852 | 152.90328 | 29314 ft | 443 kts | 210° |
| 2026-05-04 07:12 | -28.16730 | 152.89051 | 29898 ft | 441 kts | 210° |
| 2026-05-04 07:12 | -28.19567 | 152.87787 | 30072 ft | 444 kts | 210° |
| 2026-05-04 07:13 | -28.22447 | 152.86499 | 30105 ft | 444 kts | 210° |
| 2026-05-04 07:13 | -28.28194 | 152.83941 | 30102 ft | 440 kts | 210° |
| 2026-05-04 07:14 | -28.42415 | 152.77591 | 30104 ft | 440 kts | 210° |
| 2026-05-04 07:15 | -28.48095 | 152.75056 | 30099 ft | 441 kts | 210° |
| 2026-05-04 07:15 | -28.53824 | 152.72491 | 30096 ft | 441 kts | 210° |
| 2026-05-04 07:16 | -28.59515 | 152.69939 | 30134 ft | 442 kts | 210° |
| 2026-05-04 07:16 | -28.65257 | 152.67363 | 30099 ft | 443 kts | 211° |
| 2026-05-04 07:17 | -28.70979 | 152.64792 | 30086 ft | 442 kts | 210° |
| 2026-05-04 07:17 | -28.76687 | 152.62225 | 30106 ft | 441 kts | 210° |
| 2026-05-04 07:18 | -28.82381 | 152.59663 | 30101 ft | 441 kts | 210° |
| 2026-05-04 07:18 | -28.87949 | 152.56834 | 30109 ft | 434 kts | 216° |
| 2026-05-04 07:19 | -28.93268 | 152.53640 | 30113 ft | 433 kts | 217° |
| 2026-05-04 07:19 | -28.98603 | 152.50413 | 30108 ft | 433 kts | 216° |
| 2026-05-04 07:20 | -29.03926 | 152.47214 | 30114 ft | 433 kts | 216° |
| 2026-05-04 07:20 | -29.09254 | 152.44029 | 30116 ft | 434 kts | 216° |
| 2026-05-04 07:22 | -29.30673 | 152.31219 | 30128 ft | 435 kts | 217° |
| 2026-05-04 07:23 | -29.36068 | 152.27986 | 30121 ft | 436 kts | 217° |
| 2026-05-04 07:23 | -29.41413 | 152.24776 | 30107 ft | 436 kts | 217° |
| 2026-05-04 07:24 | -29.46803 | 152.21529 | 30129 ft | 436 kts | 217° |
| 2026-05-04 07:24 | -29.52150 | 152.18305 | 30140 ft | 435 kts | 217° |
| 2026-05-04 07:26 | -29.73989 | 152.06318 | 30162 ft | 452 kts | 202° |
| 2026-05-04 07:27 | -29.80141 | 152.04774 | 30118 ft | 455 kts | 201° |
| 2026-05-04 07:27 | -29.86300 | 152.03231 | 30135 ft | 455 kts | 202° |
| 2026-05-04 07:28 | -29.92493 | 152.01635 | 30137 ft | 454 kts | 202° |
| 2026-05-04 07:28 | -29.98652 | 152.00028 | 30144 ft | 455 kts | 202° |
| 2026-05-04 07:29 | -30.04815 | 151.98409 | 30120 ft | 455 kts | 202° |
| 2026-05-04 07:29 | -30.11003 | 151.96788 | 30129 ft | 455 kts | 202° |
| 2026-05-04 07:30 | -30.17152 | 151.95169 | 30118 ft | 455 kts | 202° |
| 2026-05-04 07:30 | -30.23354 | 151.93538 | 30129 ft | 455 kts | 202° |
| 2026-05-04 07:31 | -30.29508 | 151.91917 | 30111 ft | 455 kts | 202° |
| 2026-05-04 07:33 | -30.49715 | 151.83096 | 30116 ft | 444 kts | 212° |
| 2026-05-04 07:33 | -30.52592 | 151.81740 | 30103 ft | 445 kts | 212° |
| 2026-05-04 07:33 | -30.58343 | 151.79052 | 30100 ft | 445 kts | 212° |
| 2026-05-04 07:34 | -30.64082 | 151.76376 | 30098 ft | 445 kts | 212° |
| 2026-05-04 07:34 | -30.69815 | 151.73696 | 30106 ft | 445 kts | 212° |
| 2026-05-04 07:35 | -30.75545 | 151.71014 | 30101 ft | 445 kts | 212° |
| 2026-05-04 07:35 | -30.81287 | 151.68323 | 30097 ft | 446 kts | 212° |
| 2026-05-04 07:36 | -30.87066 | 151.65610 | 30090 ft | 446 kts | 212° |
| 2026-05-04 07:38 | -31.10105 | 151.54758 | 30094 ft | 448 kts | 212° |
| 2026-05-04 07:38 | -31.15884 | 151.52028 | 30102 ft | 449 kts | 212° |
| 2026-05-04 07:39 | -31.21695 | 151.49279 | 30092 ft | 448 kts | 212° |
| 2026-05-04 07:39 | -31.27463 | 151.46546 | 30087 ft | 449 kts | 212° |
| 2026-05-04 07:40 | -31.33224 | 151.43812 | 30092 ft | 448 kts | 212° |
| 2026-05-04 07:40 | -31.38995 | 151.41072 | 30093 ft | 448 kts | 212° |
| 2026-05-04 07:41 | -31.44854 | 151.38420 | 30083 ft | 451 kts | 211° |
| 2026-05-04 07:41 | -31.50719 | 151.35831 | 30077 ft | 450 kts | 211° |
| 2026-05-04 07:42 | -31.56554 | 151.33237 | 30132 ft | 448 kts | 212° |
| 2026-05-04 07:42 | -31.62342 | 151.30590 | 30091 ft | 448 kts | 211° |
| 2026-05-04 07:43 | -31.67206 | 151.28444 | 30093 ft | 447 kts | 211° |
| 2026-05-04 07:43 | -31.72983 | 151.25874 | 30040 ft | 444 kts | 212° |
| 2026-05-04 07:44 | -31.79691 | 151.22859 | 30105 ft | 442 kts | 212° |
| 2026-05-04 07:44 | -31.85446 | 151.20229 | 30066 ft | 446 kts | 212° |
| 2026-05-04 07:45 | -31.90300 | 151.18060 | 30071 ft | 448 kts | 211° |
| 2026-05-04 07:45 | -31.96146 | 151.15450 | 30058 ft | 448 kts | 211° |
| 2026-05-04 07:46 | -32.01971 | 151.12837 | 30074 ft | 450 kts | 211° |
| 2026-05-04 07:46 | -32.07843 | 151.10204 | 30045 ft | 452 kts | 211° |
| 2026-05-04 07:47 | -32.13682 | 151.07591 | 30039 ft | 443 kts | 211° |
| 2026-05-04 07:47 | -32.16546 | 151.06310 | 29750 ft | 435 kts | 211° |
| 2026-05-04 07:49 | -32.35370 | 150.97811 | 26877 ft | 400 kts | 210° |
| 2026-05-04 07:49 | -32.37937 | 150.96648 | 26479 ft | 401 kts | 210° |
| 2026-05-04 07:49 | -32.40563 | 150.95454 | 26078 ft | 408 kts | 209° |
| 2026-05-04 07:50 | -32.43225 | 150.94248 | 25660 ft | 407 kts | 209° |
| 2026-05-04 07:50 | -32.45867 | 150.93055 | 25239 ft | 403 kts | 208° |
| 2026-05-04 07:50 | -32.48532 | 150.92085 | 24821 ft | 408 kts | 198° |
| 2026-05-04 07:50 | -32.51374 | 150.91699 | 24532 ft | 410 kts | 188° |
| 2026-05-04 07:51 | -32.54219 | 150.91879 | 24267 ft | 410 kts | 178° |
| 2026-05-04 07:51 | -32.57039 | 150.92374 | 23912 ft | 408 kts | 176° |
| 2026-05-04 07:51 | -32.59845 | 150.92920 | 23510 ft | 407 kts | 176° |
| 2026-05-04 07:51 | -32.62603 | 150.93452 | 23064 ft | 405 kts | 176° |
| 2026-05-04 07:52 | -32.65400 | 150.93979 | 22653 ft | 405 kts | 176° |
| 2026-05-04 07:52 | -32.68186 | 150.94488 | 22228 ft | 410 kts | 176° |
| 2026-05-04 07:52 | -32.71004 | 150.94996 | 21763 ft | 407 kts | 176° |
| 2026-05-04 07:52 | -32.73799 | 150.95491 | 21380 ft | 403 kts | 176° |
| 2026-05-04 07:53 | -32.76530 | 150.95973 | 20974 ft | 399 kts | 176° |
| 2026-05-04 07:54 | -32.95198 | 150.99284 | 18241 ft | 380 kts | 175° |
| 2026-05-04 07:55 | -32.97821 | 150.99751 | 17778 ft | 379 kts | 175° |
| 2026-05-04 07:55 | -33.00430 | 151.00218 | 17381 ft | 376 kts | 175° |
| 2026-05-04 07:55 | -33.02986 | 151.00676 | 16989 ft | 373 kts | 175° |
| 2026-05-04 07:55 | -33.05544 | 151.01134 | 16614 ft | 370 kts | 175° |
| 2026-05-04 07:56 | -33.08097 | 151.01592 | 16219 ft | 368 kts | 175° |
| 2026-05-04 07:56 | -33.10600 | 151.02040 | 15847 ft | 366 kts | 175° |
| 2026-05-04 07:56 | -33.13110 | 151.02490 | 15469 ft | 363 kts | 175° |
| 2026-05-04 07:56 | -33.15609 | 151.02938 | 15098 ft | 361 kts | 175° |
| 2026-05-04 07:57 | -33.18096 | 151.03384 | 14704 ft | 360 kts | 175° |
| 2026-05-04 07:57 | -33.20538 | 151.03823 | 14333 ft | 358 kts | 174° |
| 2026-05-04 07:57 | -33.23005 | 151.04268 | 13926 ft | 357 kts | 174° |
| 2026-05-04 07:57 | -33.25461 | 151.04721 | 13548 ft | 355 kts | 174° |
| 2026-05-04 07:58 | -33.27903 | 151.05191 | 13149 ft | 353 kts | 173° |
| 2026-05-04 07:58 | -33.30296 | 151.05660 | 12794 ft | 350 kts | 174° |
| 2026-05-04 07:58 | -33.32694 | 151.06121 | 12417 ft | 348 kts | 174° |
| 2026-05-04 07:58 | -33.35087 | 151.06577 | 12038 ft | 346 kts | 174° |
| 2026-05-04 07:59 | -33.37463 | 151.07031 | 11683 ft | 343 kts | 174° |
| 2026-05-04 07:59 | -33.39798 | 151.07479 | 11315 ft | 342 kts | 174° |
| 2026-05-04 07:59 | -33.42150 | 151.07931 | 10966 ft | 340 kts | 174° |
| 2026-05-04 07:59 | -33.44459 | 151.08376 | 10623 ft | 339 kts | 174° |
| 2026-05-04 08:00 | -33.46771 | 151.08820 | 10470 ft | 330 kts | 174° |
| 2026-05-04 08:00 | -33.48988 | 151.09247 | 10325 ft | 321 kts | 174° |
| 2026-05-04 08:00 | -33.51179 | 151.09669 | 10178 ft | 314 kts | 174° |
| 2026-05-04 08:02 | -33.65665 | 151.12487 | 8652 ft | 296 kts | 174° |
| 2026-05-04 08:02 | -33.67681 | 151.12885 | 8497 ft | 298 kts | 173° |
| 2026-05-04 08:02 | -33.69711 | 151.13423 | 8332 ft | 302 kts | 159° |
| 2026-05-04 08:03 | -33.71448 | 151.14853 | 8201 ft | 303 kts | 136° |
| 2026-05-04 08:03 | -33.72921 | 151.16635 | 8030 ft | 303 kts | 133° |
| 2026-05-04 08:03 | -33.74374 | 151.18491 | 7870 ft | 304 kts | 132° |
| 2026-05-04 08:03 | -33.75823 | 151.20344 | 7731 ft | 303 kts | 133° |
| 2026-05-04 08:04 | -33.77283 | 151.22185 | 7572 ft | 304 kts | 133° |
| 2026-05-04 08:04 | -33.78730 | 151.23988 | 7407 ft | 302 kts | 133° |
| 2026-05-04 08:04 | -33.80189 | 151.25803 | 7260 ft | 298 kts | 134° |
| 2026-05-04 08:04 | -33.81628 | 151.27590 | 7088 ft | 297 kts | 134° |
| 2026-05-04 08:05 | -33.83257 | 151.29036 | 6923 ft | 294 kts | 160° |
| 2026-05-04 08:05 | -33.85216 | 151.29700 | 6817 ft | 289 kts | 171° |
| 2026-05-04 08:05 | -33.87197 | 151.30193 | 6650 ft | 290 kts | 172° |
| 2026-05-04 08:05 | -33.89152 | 151.30672 | 6516 ft | 289 kts | 171° |
| 2026-05-04 08:06 | -33.91126 | 151.31170 | 6357 ft | 290 kts | 171° |
| 2026-05-04 08:06 | -33.93114 | 151.31683 | 6202 ft | 290 kts | 171° |
| 2026-05-04 08:06 | -33.95064 | 151.32191 | 6063 ft | 289 kts | 171° |
| 2026-05-04 08:06 | -33.97035 | 151.32705 | 6002 ft | 288 kts | 171° |
| 2026-05-04 08:08 | -34.11064 | 151.36381 | 2940 ft | 298 kts | 169° |
| 2026-05-04 08:08 | -34.13106 | 151.36916 | 2385 ft | 298 kts | 167° |
| 2026-05-04 08:10 | -34.18537 | 151.29954 | 2003 ft | 168 kts | 322° |
| 2026-05-04 08:11 | -34.17645 | 151.29059 | 1993 ft | 167 kts | 322° |
| 2026-05-04 08:11 | -34.15866 | 151.27309 | 1976 ft | 164 kts | 322° |
| 2026-05-04 08:11 | -34.14978 | 151.26454 | 1977 ft | 162 kts | 323° |
| 2026-05-04 08:12 | -34.14086 | 151.25588 | 1992 ft | 165 kts | 323° |
| 2026-05-04 08:12 | -34.13196 | 151.24693 | 1982 ft | 168 kts | 323° |
| 2026-05-04 08:12 | -34.12296 | 151.23779 | 1990 ft | 171 kts | 323° |
| 2026-05-04 08:12 | -34.11272 | 151.23171 | 1996 ft | 162 kts | 349° |
| 2026-05-04 08:13 | -34.10174 | 151.22863 | 2002 ft | 160 kts | 346° |
| 2026-05-04 08:13 | -34.09091 | 151.22534 | 1995 ft | 159 kts | 346° |
| 2026-05-04 08:13 | -34.08033 | 151.22240 | 1991 ft | 157 kts | 348° |
| 2026-05-04 08:13 | -34.06974 | 151.21961 | 1941 ft | 153 kts | 348° |
| 2026-05-04 08:14 | -34.05976 | 151.21699 | 1786 ft | 140 kts | 349° |
| 2026-05-04 08:14 | -34.05045 | 151.21457 | 1623 ft | 136 kts | 350° |
| 2026-05-04 08:14 | -34.04127 | 151.21218 | 1438 ft | 135 kts | 350° |
| 2026-05-04 08:16 | -33.97591 | 151.19508 | 175 ft | 135 kts | 350° |
| 2026-05-04 08:16 | -33.96673 | 151.19268 | 31 ft | 127 kts | 352° |
| 2026-05-04 08:16 | -33.95950 | 151.19084 | 27 ft | 79 kts | 348° |
| 2026-05-04 08:17 | -33.95599 | 151.18993 | 27 ft | 37 kts | 348° |
| 2026-05-04 08:17 | -33.95366 | 151.18900 | 24 ft | 33 kts | 332° |
| 2026-05-04 08:17 | -33.95196 | 151.18749 | 28 ft | 29 kts | 318° |
| 2026-05-04 08:17 | -33.95091 | 151.18567 | 29 ft | 26 kts | 266° |
| 2026-05-04 08:19 | -33.94708 | 151.17841 | 29 ft | 17 kts | 348° |
| 2026-05-04 08:19 | -33.94593 | 151.17812 | 29 ft | 16 kts | 348° |
| 2026-05-04 08:20 | -33.94485 | 151.17782 | 29 ft | 16 kts | 346° |
| 2026-05-04 08:20 | -33.94379 | 151.17749 | 29 ft | 16 kts | 346° |
| 2026-05-04 08:20 | -33.94263 | 151.17713 | 28 ft | 18 kts | 345° |
| 2026-05-04 08:20 | -33.94147 | 151.17677 | 28 ft | 17 kts | 346° |
| 2026-05-04 08:21 | -33.94033 | 151.17646 | 27 ft | 16 kts | 348° |
| 2026-05-04 08:21 | -33.93923 | 151.17617 | 28 ft | 17 kts | 348° |
| 2026-05-04 08:21 | -33.93811 | 151.17588 | 28 ft | 16 kts | 348° |
| 2026-05-04 08:21 | -33.93703 | 151.17559 | 28 ft | 16 kts | 347° |
| 2026-05-04 08:22 | -33.93599 | 151.17532 | 28 ft | 15 kts | 348° |
| 2026-05-04 08:22 | -33.93500 | 151.17506 | 28 ft | 14 kts | 347° |
| 2026-05-04 08:24 | -33.92993 | 151.17524 | 29 ft | 10 kts | 106° |
| 2026-05-04 08:24 | -33.93007 | 151.17605 | 29 ft | 10 kts | 101° |
| 2026-05-04 08:24 | -33.93023 | 151.17682 | 29 ft | 10 kts | 111° |
| 2026-05-04 08:24 | -33.93053 | 151.17754 | 29 ft | 9 kts | 111° |
| 2026-05-04 08:25 | -33.93067 | 151.17829 | 29 ft | 9 kts | 99° |
| 2026-05-04 08:25 | -33.93075 | 151.17888 | 29 ft | 8 kts | 100° |
| 2026-05-04 08:25 | -33.93084 | 151.17951 | 29 ft | 7 kts | 101° |
| 2026-05-04 08:25 | -33.93095 | 151.17978 | 29 ft | 0 kts | 148° |